createdAt,value
2018-11-26T00:00:59.770Z,1004.54
2018-11-26T00:01:59.744Z,1004.60
2018-11-26T00:02:59.720Z,1004.59
2018-11-26T00:03:59.698Z,1004.54
2018-11-26T00:04:59.674Z,1004.53
2018-11-26T00:05:59.645Z,1004.55
2018-11-26T00:06:59.620Z,1004.50
2018-11-26T00:07:59.596Z,1004.46
2018-11-26T00:08:59.574Z,1004.46
2018-11-26T00:09:59.551Z,1004.43
2018-11-26T00:10:59.526Z,1004.44
2018-11-26T00:11:59.497Z,1004.40
2018-11-26T00:12:59.478Z,1004.43
2018-11-26T00:13:59.447Z,1004.45
2018-11-26T00:14:59.423Z,1004.42
2018-11-26T00:15:59.398Z,1004.38
2018-11-26T00:16:59.374Z,1004.41
2018-11-26T00:17:59.349Z,1004.39
2018-11-26T00:18:59.322Z,1004.37
2018-11-26T00:19:59.298Z,1004.41
2018-11-26T00:20:59.279Z,1004.37
2018-11-26T00:21:59.252Z,1004.35
2018-11-26T00:22:59.226Z,1004.31
2018-11-26T00:23:59.199Z,1004.34
2018-11-26T00:24:59.175Z,1004.31
2018-11-26T00:25:59.150Z,1004.33
2018-11-26T00:26:59.126Z,1004.30
2018-11-26T00:27:59.101Z,1004.27
2018-11-26T00:28:59.077Z,1004.27
2018-11-26T00:29:59.051Z,1004.26
2018-11-26T00:30:59.027Z,1004.24
2018-11-26T00:31:59.001Z,1004.28
2018-11-26T00:32:58.990Z,1004.28
2018-11-26T00:33:58.951Z,1004.29
2018-11-26T00:34:58.932Z,1004.26
2018-11-26T00:35:58.902Z,1004.23
2018-11-26T00:36:58.877Z,1004.24
2018-11-26T00:37:58.855Z,1004.23
2018-11-26T00:38:58.855Z,1004.21
2018-11-26T00:39:58.803Z,1004.19
2018-11-26T00:40:58.781Z,1004.20
2018-11-26T00:41:58.755Z,1004.19
2018-11-26T00:42:58.728Z,1004.12
2018-11-26T00:43:58.703Z,1004.16
2018-11-26T00:44:58.680Z,1004.10
2018-11-26T00:45:58.654Z,1004.13
2018-11-26T00:46:58.630Z,1004.13
2018-11-26T00:47:58.605Z,1004.07
2018-11-26T00:48:58.593Z,1004.08
2018-11-26T00:49:58.554Z,1004.03
2018-11-26T00:50:58.531Z,1004.07
2018-11-26T00:51:58.506Z,1004.03
2018-11-26T00:52:58.482Z,1004.07
2018-11-26T00:53:58.457Z,1004.06
2018-11-26T00:54:58.430Z,1004.11
2018-11-26T00:55:58.407Z,1004.12
2018-11-26T00:56:58.386Z,1004.10
2018-11-26T00:57:58.356Z,1004.06
2018-11-26T00:58:58.332Z,1004.05
2018-11-26T00:59:58.314Z,1004.05
2018-11-26T01:00:58.286Z,1004.01
2018-11-26T01:01:58.257Z,1004.00
2018-11-26T01:02:58.233Z,1003.99
2018-11-26T01:03:58.214Z,1004.01
2018-11-26T01:04:58.186Z,1004.01
2018-11-26T01:05:58.158Z,1004.02
2018-11-26T01:06:58.133Z,1004.05
2018-11-26T01:07:58.110Z,1004.01
2018-11-26T01:08:58.091Z,1004.06
2018-11-26T01:09:58.060Z,1004.03
2018-11-26T01:10:58.035Z,1004.08
2018-11-26T01:11:58.010Z,1004.04
2018-11-26T01:12:57.986Z,1004.06
2018-11-26T01:13:57.959Z,1004.10
2018-11-26T01:14:57.934Z,1004.09
2018-11-26T01:15:57.912Z,1004.12
2018-11-26T01:16:57.911Z,1004.07
2018-11-26T01:17:57.866Z,1004.09
2018-11-26T01:18:57.834Z,1004.07
2018-11-26T01:19:57.812Z,1004.06
2018-11-26T01:20:57.786Z,1004.09
2018-11-26T01:21:57.819Z,1004.10
2018-11-26T01:22:57.736Z,1004.06
2018-11-26T01:23:57.712Z,1004.09
2018-11-26T01:24:57.698Z,1004.12
2018-11-26T01:25:57.669Z,1004.09
2018-11-26T01:26:57.639Z,1004.12
2018-11-26T01:27:57.613Z,1004.14
2018-11-26T01:28:57.589Z,1004.14
2018-11-26T01:29:57.566Z,1004.15
2018-11-26T01:30:57.538Z,1004.20
2018-11-26T01:31:57.518Z,1004.20
2018-11-26T01:32:57.489Z,1004.19
2018-11-26T01:33:57.465Z,1004.19
2018-11-26T01:34:57.440Z,1004.19
2018-11-26T01:35:57.416Z,1004.17
2018-11-26T01:36:57.401Z,1004.14
2018-11-26T01:37:57.364Z,1004.14
2018-11-26T01:38:57.340Z,1004.12
2018-11-26T01:39:57.318Z,1004.11
2018-11-26T01:40:57.293Z,1004.08
2018-11-26T01:41:57.268Z,1004.10
2018-11-26T01:42:57.243Z,1004.07
2018-11-26T01:43:57.218Z,1004.06
2018-11-26T01:44:57.192Z,1004.07
2018-11-26T01:45:57.167Z,1004.11
2018-11-26T01:46:57.149Z,1004.11
2018-11-26T01:47:57.116Z,1004.08
2018-11-26T01:48:57.096Z,1004.11
2018-11-26T01:49:57.077Z,1004.10
2018-11-26T01:50:57.042Z,1004.08
2018-11-26T01:51:57.017Z,1004.05
2018-11-26T01:52:56.993Z,1004.10
2018-11-26T01:53:56.967Z,1004.07
2018-11-26T01:54:56.969Z,1004.07
2018-11-26T01:55:56.918Z,1004.07
2018-11-26T01:56:56.892Z,1004.04
2018-11-26T01:57:56.869Z,1004.11
2018-11-26T01:58:56.844Z,1004.08
2018-11-26T01:59:56.829Z,1004.09
2018-11-26T02:00:56.797Z,1004.08
2018-11-26T02:01:56.769Z,1004.15
2018-11-26T02:02:56.754Z,1004.15
2018-11-26T02:03:56.719Z,1004.17
2018-11-26T02:04:56.696Z,1004.17
2018-11-26T02:05:56.670Z,1004.21
2018-11-26T02:06:56.646Z,1004.16
2018-11-26T02:07:56.620Z,1004.16
2018-11-26T02:08:56.599Z,1004.18
2018-11-26T02:09:56.571Z,1004.21
2018-11-26T02:10:56.546Z,1004.21
2018-11-26T02:11:56.521Z,1004.24
2018-11-26T02:12:56.496Z,1004.22
2018-11-26T02:13:56.474Z,1004.23
2018-11-26T02:14:56.448Z,1004.22
2018-11-26T02:15:56.429Z,1004.21
2018-11-26T02:16:56.396Z,1004.23
2018-11-26T02:17:56.371Z,1004.24
2018-11-26T02:18:56.348Z,1004.24
2018-11-26T02:19:56.323Z,1004.27
2018-11-26T02:20:56.298Z,1004.22
2018-11-26T02:21:56.273Z,1004.23
2018-11-26T02:22:56.248Z,1004.21
2018-11-26T02:23:56.225Z,1004.24
2018-11-26T02:24:56.197Z,1004.23
2018-11-26T02:25:56.177Z,1004.24
2018-11-26T02:26:56.148Z,1004.25
2018-11-26T02:27:56.131Z,1004.24
2018-11-26T02:28:56.117Z,1004.21
2018-11-26T02:29:56.075Z,1004.20
2018-11-26T02:30:56.049Z,1004.23
2018-11-26T02:31:56.025Z,1004.21
2018-11-26T02:32:55.999Z,1004.19
2018-11-26T02:33:55.976Z,1004.18
2018-11-26T02:34:55.951Z,1004.15
2018-11-26T02:35:55.952Z,1004.16
2018-11-26T02:36:55.909Z,1004.08
2018-11-26T02:37:55.876Z,1004.10
2018-11-26T02:38:55.853Z,1004.13
2018-11-26T02:39:55.834Z,1004.09
2018-11-26T02:40:55.809Z,1004.04
2018-11-26T02:41:55.785Z,1004.07
2018-11-26T02:42:55.752Z,1004.10
2018-11-26T02:43:55.737Z,1004.07
2018-11-26T02:44:55.706Z,1004.06
2018-11-26T02:45:55.679Z,1004.06
2018-11-26T02:46:55.656Z,1004.03
2018-11-26T02:47:55.629Z,1004.02
2018-11-26T02:48:55.604Z,1004.01
2018-11-26T02:49:55.579Z,1003.99
2018-11-26T02:50:55.555Z,1003.99
2018-11-26T02:51:55.532Z,1003.95
2018-11-26T02:52:55.551Z,1003.99
2018-11-26T02:53:55.480Z,1003.96
2018-11-26T02:54:55.458Z,1003.97
2018-11-26T02:55:55.431Z,1003.97
2018-11-26T02:56:55.415Z,1003.96
2018-11-26T02:57:55.383Z,1003.97
2018-11-26T02:58:55.355Z,1003.96
2018-11-26T02:59:55.331Z,1003.97
2018-11-26T03:00:55.308Z,1003.93
2018-11-26T03:01:55.281Z,1003.98
2018-11-26T03:02:55.259Z,1004.03
2018-11-26T03:03:55.236Z,1004.04
2018-11-26T03:04:55.209Z,1004.07
2018-11-26T03:05:55.183Z,1004.04
2018-11-26T03:06:55.160Z,1004.03
2018-11-26T03:07:55.138Z,1004.05
2018-11-26T03:08:55.110Z,1004.02
2018-11-26T03:09:55.087Z,1004.02
2018-11-26T03:10:55.061Z,1004.03
2018-11-26T03:11:55.037Z,1004.05
2018-11-26T03:12:55.012Z,1004.06
2018-11-26T03:13:54.986Z,1004.05
2018-11-26T03:14:54.962Z,1004.04
2018-11-26T03:15:54.938Z,1004.05
2018-11-26T03:16:54.913Z,1004.06
2018-11-26T03:17:54.887Z,1004.05
2018-11-26T03:18:54.863Z,1004.08
2018-11-26T03:19:54.839Z,1004.00
2018-11-26T03:20:54.814Z,1004.06
2018-11-26T03:21:54.798Z,1004.03
2018-11-26T03:22:54.767Z,1004.04
2018-11-26T03:23:54.741Z,1004.06
2018-11-26T03:24:54.715Z,1004.08
2018-11-26T03:25:54.691Z,1004.09
2018-11-26T03:26:54.665Z,1004.07
2018-11-26T03:27:54.640Z,1004.07
2018-11-26T03:28:54.616Z,1004.09
2018-11-26T03:29:54.591Z,1004.10
2018-11-26T03:30:54.569Z,1004.07
2018-11-26T03:31:54.544Z,1004.11
2018-11-26T03:32:54.521Z,1004.06
2018-11-26T03:33:54.497Z,1004.06
2018-11-26T03:34:54.471Z,1004.05
2018-11-26T03:35:54.443Z,1004.05
2018-11-26T03:36:54.428Z,1004.06
2018-11-26T03:37:54.402Z,1004.07
2018-11-26T03:38:54.369Z,1004.08
2018-11-26T03:39:54.360Z,1004.07
2018-11-26T03:40:54.321Z,1004.12
2018-11-26T03:41:54.297Z,1004.12
2018-11-26T03:42:54.294Z,1004.16
2018-11-26T03:43:54.257Z,1004.13
2018-11-26T03:44:54.222Z,1004.14
2018-11-26T03:45:54.196Z,1004.20
2018-11-26T03:46:54.173Z,1004.15
2018-11-26T03:47:54.148Z,1004.14
2018-11-26T03:48:54.125Z,1004.19
2018-11-26T03:49:54.108Z,1004.18
2018-11-26T03:50:54.074Z,1004.22
2018-11-26T03:51:54.049Z,1004.19
2018-11-26T03:52:54.024Z,1004.19
2018-11-26T03:53:53.999Z,1004.18
2018-11-26T03:54:53.974Z,1004.21
2018-11-26T03:55:53.951Z,1004.20
2018-11-26T03:56:53.928Z,1004.21
2018-11-26T03:57:53.902Z,1004.21
2018-11-26T03:58:53.877Z,1004.21
2018-11-26T03:59:53.852Z,1004.23
2018-11-26T04:00:53.830Z,1004.23
2018-11-26T04:01:53.802Z,1004.21
2018-11-26T04:02:53.782Z,1004.19
2018-11-26T04:03:53.752Z,1004.21
2018-11-26T04:04:53.732Z,1004.18
2018-11-26T04:05:53.703Z,1004.16
2018-11-26T04:06:53.678Z,1004.16
2018-11-26T04:07:53.655Z,1004.19
2018-11-26T04:08:53.631Z,1004.19
2018-11-26T04:09:53.605Z,1004.20
2018-11-26T04:10:53.585Z,1004.20
2018-11-26T04:11:53.556Z,1004.20
2018-11-26T04:12:53.531Z,1004.19
2018-11-26T04:13:53.514Z,1004.20
2018-11-26T04:14:53.482Z,1004.21
2018-11-26T04:15:53.460Z,1004.19
2018-11-26T04:16:53.432Z,1004.23
2018-11-26T04:17:53.408Z,1004.22
2018-11-26T04:18:53.384Z,1004.23
2018-11-26T04:19:53.363Z,1004.20
2018-11-26T04:20:53.348Z,1004.20
2018-11-26T04:21:53.313Z,1004.22
2018-11-26T04:22:53.287Z,1004.23
2018-11-26T04:23:53.261Z,1004.20
2018-11-26T04:24:53.239Z,1004.24
2018-11-26T04:25:53.214Z,1004.19
2018-11-26T04:26:53.187Z,1004.19
2018-11-26T04:27:53.162Z,1004.18
2018-11-26T04:28:53.141Z,1004.20
2018-11-26T04:29:53.111Z,1004.26
2018-11-26T04:30:53.094Z,1004.22
2018-11-26T04:31:53.072Z,1004.24
2018-11-26T04:32:53.041Z,1004.26
2018-11-26T04:33:53.017Z,1004.25
2018-11-26T04:34:52.990Z,1004.27
2018-11-26T04:35:52.967Z,1004.27
2018-11-26T04:36:52.942Z,1004.25
2018-11-26T04:37:52.919Z,1004.20
2018-11-26T04:38:52.896Z,1004.21
2018-11-26T04:39:52.873Z,1004.25
2018-11-26T04:40:52.843Z,1004.20
2018-11-26T04:41:52.825Z,1004.23
2018-11-26T04:42:52.794Z,1004.17
2018-11-26T04:43:52.769Z,1004.21
2018-11-26T04:44:52.746Z,1004.24
2018-11-26T04:45:52.719Z,1004.23
2018-11-26T04:46:52.696Z,1004.23
2018-11-26T04:47:52.671Z,1004.27
2018-11-26T04:48:52.647Z,1004.28
2018-11-26T04:49:52.626Z,1004.28
2018-11-26T04:50:52.597Z,1004.24
2018-11-26T04:51:52.572Z,1004.28
2018-11-26T04:52:52.548Z,1004.33
2018-11-26T04:53:52.525Z,1004.30
2018-11-26T04:54:52.504Z,1004.31
2018-11-26T04:55:52.477Z,1004.25
2018-11-26T04:56:52.452Z,1004.25
2018-11-26T04:57:52.425Z,1004.23
2018-11-26T04:58:52.401Z,1004.23
2018-11-26T04:59:52.381Z,1004.21
2018-11-26T05:00:52.353Z,1004.19
2018-11-26T05:01:52.331Z,1004.13
2018-11-26T05:02:52.309Z,1004.14
2018-11-26T05:03:52.282Z,1004.15
2018-11-26T05:04:52.256Z,1004.10
2018-11-26T05:05:52.239Z,1004.17
2018-11-26T05:06:52.207Z,1004.09
2018-11-26T05:07:52.182Z,1004.14
2018-11-26T05:08:52.157Z,1004.09
2018-11-26T05:09:52.131Z,1004.11
2018-11-26T05:10:52.109Z,1004.09
2018-11-26T05:11:52.084Z,1004.09
2018-11-26T05:12:52.062Z,1004.06
2018-11-26T05:13:52.034Z,1004.03
2018-11-26T05:14:52.009Z,1004.06
2018-11-26T05:15:51.986Z,1004.09
2018-11-26T05:16:51.965Z,1004.08
2018-11-26T05:17:51.944Z,1004.05
2018-11-26T05:18:51.915Z,1004.08
2018-11-26T05:19:51.887Z,1004.09
2018-11-26T05:20:51.864Z,1004.08
2018-11-26T05:21:51.841Z,1004.07
2018-11-26T05:22:51.814Z,1004.08
2018-11-26T05:23:51.789Z,1004.09
2018-11-26T05:24:51.765Z,1004.08
2018-11-26T05:25:51.740Z,1004.09
2018-11-26T05:26:51.714Z,1004.12
2018-11-26T05:27:51.691Z,1004.14
2018-11-26T05:28:51.669Z,1004.16
2018-11-26T05:29:51.643Z,1004.18
2018-11-26T05:30:51.624Z,1004.15
2018-11-26T05:31:51.592Z,1004.18
2018-11-26T05:32:51.568Z,1004.19
2018-11-26T05:33:51.563Z,1004.21
2018-11-26T05:34:51.524Z,1004.16
2018-11-26T05:35:51.499Z,1004.17
2018-11-26T05:36:51.471Z,1004.14
2018-11-26T05:37:51.446Z,1004.13
2018-11-26T05:38:51.425Z,1004.12
2018-11-26T05:39:51.398Z,1004.14
2018-11-26T05:40:51.372Z,1004.16
2018-11-26T05:41:51.348Z,1004.14
2018-11-26T05:42:51.324Z,1004.14
2018-11-26T05:43:51.299Z,1004.17
2018-11-26T05:44:51.274Z,1004.19
2018-11-26T05:45:51.249Z,1004.18
2018-11-26T05:46:51.233Z,1004.17
2018-11-26T05:47:51.200Z,1004.20
2018-11-26T05:48:51.177Z,1004.16
2018-11-26T05:49:51.153Z,1004.19
2018-11-26T05:50:51.127Z,1004.17
2018-11-26T05:51:51.101Z,1004.17
2018-11-26T05:52:51.110Z,1004.21
2018-11-26T05:53:51.053Z,1004.20
2018-11-26T05:54:51.030Z,1004.24
2018-11-26T05:55:51.006Z,1004.23
2018-11-26T05:56:50.987Z,1004.23
2018-11-26T05:57:50.968Z,1004.22
2018-11-26T05:58:50.932Z,1004.23
2018-11-26T05:59:50.906Z,1004.24
2018-11-26T06:00:50.884Z,1004.22
2018-11-26T06:01:50.857Z,1004.26
2018-11-26T06:02:50.838Z,1004.26
2018-11-26T06:03:50.811Z,1004.30
2018-11-26T06:04:50.791Z,1004.28
2018-11-26T06:05:50.783Z,1004.34
2018-11-26T06:06:50.736Z,1004.32
2018-11-26T06:07:50.710Z,1004.32
2018-11-26T06:08:50.688Z,1004.38
2018-11-26T06:09:50.667Z,1004.35
2018-11-26T06:10:50.637Z,1004.37
2018-11-26T06:11:50.614Z,1004.37
2018-11-26T06:12:50.592Z,1004.32
2018-11-26T06:13:50.563Z,1004.35
2018-11-26T06:14:50.542Z,1004.36
2018-11-26T06:15:50.515Z,1004.36
2018-11-26T06:16:53.733Z,1004.40
2018-11-26T06:17:50.466Z,1004.34
2018-11-26T06:18:50.441Z,1004.38
2018-11-26T06:19:50.417Z,1004.37
2018-11-26T06:20:50.392Z,1004.40
2018-11-26T06:21:50.368Z,1004.38
2018-11-26T06:22:50.343Z,1004.41
2018-11-26T06:23:50.319Z,1004.46
2018-11-26T06:24:50.296Z,1004.45
2018-11-26T06:25:50.271Z,1004.43
2018-11-26T06:26:50.255Z,1004.48
2018-11-26T06:27:50.228Z,1004.43
2018-11-26T06:28:50.197Z,1004.44
2018-11-26T06:29:50.174Z,1004.47
2018-11-26T06:30:50.152Z,1004.47
2018-11-26T06:31:50.124Z,1004.43
2018-11-26T06:32:50.101Z,1004.46
2018-11-26T06:33:50.075Z,1004.47
2018-11-26T06:34:50.051Z,1004.45
2018-11-26T06:35:50.028Z,1004.42
2018-11-26T06:36:50.001Z,1004.46
2018-11-26T06:37:49.976Z,1004.45
2018-11-26T06:38:49.951Z,1004.46
2018-11-26T06:39:49.927Z,1004.45
2018-11-26T06:40:49.908Z,1004.44
2018-11-26T06:41:49.878Z,1004.44
2018-11-26T06:42:49.854Z,1004.43
2018-11-26T06:43:49.831Z,1004.44
2018-11-26T06:44:49.807Z,1004.44
2018-11-26T06:45:49.780Z,1004.47
2018-11-26T06:46:49.757Z,1004.50
2018-11-26T06:47:49.733Z,1004.52
2018-11-26T06:48:49.711Z,1004.50
2018-11-26T06:49:49.684Z,1004.52
2018-11-26T06:50:49.664Z,1004.48
2018-11-26T06:51:49.638Z,1004.54
2018-11-26T06:52:49.617Z,1004.54
2018-11-26T06:53:49.585Z,1004.53
2018-11-26T06:54:49.562Z,1004.58
2018-11-26T06:55:49.545Z,1004.59
2018-11-26T06:56:49.513Z,1004.59
2018-11-26T06:57:49.493Z,1004.60
2018-11-26T06:58:49.468Z,1004.59
2018-11-26T06:59:49.482Z,1004.61
2018-11-26T07:00:49.416Z,1004.59
2018-11-26T07:01:49.392Z,1004.63
2018-11-26T07:02:49.365Z,1004.63
2018-11-26T07:03:49.342Z,1004.61
2018-11-26T07:04:49.320Z,1004.61
2018-11-26T07:05:49.294Z,1004.63
2018-11-26T07:06:49.268Z,1004.66
2018-11-26T07:07:49.254Z,1004.64
2018-11-26T07:08:49.224Z,1004.65
2018-11-26T07:09:49.194Z,1004.64
2018-11-26T07:10:49.169Z,1004.67
2018-11-26T07:11:49.146Z,1004.68
2018-11-26T07:12:49.150Z,1004.72
2018-11-26T07:13:49.097Z,1004.73
2018-11-26T07:14:49.072Z,1004.69
2018-11-26T07:15:49.051Z,1004.72
2018-11-26T07:16:49.024Z,1004.72
2018-11-26T07:17:49.003Z,1004.75
2018-11-26T07:18:48.974Z,1004.76
2018-11-26T07:19:48.950Z,1004.71
2018-11-26T07:20:48.929Z,1004.76
2018-11-26T07:21:48.905Z,1004.74
2018-11-26T07:22:48.878Z,1004.75
2018-11-26T07:23:48.858Z,1004.75
2018-11-26T07:24:48.830Z,1004.75
2018-11-26T07:25:48.805Z,1004.76
2018-11-26T07:26:48.783Z,1004.79
2018-11-26T07:27:48.759Z,1004.80
2018-11-26T07:28:48.732Z,1004.79
2018-11-26T07:29:48.709Z,1004.79
2018-11-26T07:30:48.681Z,1004.82
2018-11-26T07:31:48.663Z,1004.80
2018-11-26T07:32:48.633Z,1004.78
2018-11-26T07:33:48.612Z,1004.79
2018-11-26T07:34:48.585Z,1004.84
2018-11-26T07:35:48.561Z,1004.84
2018-11-26T07:36:48.537Z,1004.84
2018-11-26T07:37:48.513Z,1004.83
2018-11-26T07:38:48.487Z,1004.85
2018-11-26T07:39:48.462Z,1004.84
2018-11-26T07:40:48.438Z,1004.87
2018-11-26T07:41:48.414Z,1004.90
2018-11-26T07:42:48.388Z,1004.91
2018-11-26T07:43:48.370Z,1004.94
2018-11-26T07:44:48.361Z,1004.94
2018-11-26T07:45:48.316Z,1004.99
2018-11-26T07:46:48.294Z,1004.99
2018-11-26T07:47:48.278Z,1004.96
2018-11-26T07:48:48.245Z,1005.02
2018-11-26T07:49:48.219Z,1005.03
2018-11-26T07:50:48.194Z,1005.00
2018-11-26T07:51:48.169Z,1005.02
2018-11-26T07:52:48.146Z,1005.00
2018-11-26T07:53:48.120Z,1005.02
2018-11-26T07:54:48.131Z,1004.98
2018-11-26T07:55:48.088Z,1005.00
2018-11-26T07:56:48.052Z,1004.98
2018-11-26T07:57:48.038Z,1005.02
2018-11-26T07:58:47.999Z,1004.99
2018-11-26T07:59:47.974Z,1005.02
2018-11-26T08:00:47.957Z,1005.02
2018-11-26T08:01:47.926Z,1005.04
2018-11-26T08:02:47.900Z,1005.03
2018-11-26T08:03:47.881Z,1005.04
2018-11-26T08:04:47.852Z,1005.08
2018-11-26T08:05:47.833Z,1005.07
2018-11-26T08:06:47.805Z,1005.07
2018-11-26T08:07:47.790Z,1005.13
2018-11-26T08:08:47.758Z,1005.16
2018-11-26T08:09:47.731Z,1005.18
2018-11-26T08:10:47.723Z,1005.16
2018-11-26T08:11:47.684Z,1005.17
2018-11-26T08:12:47.658Z,1005.17
2018-11-26T08:13:47.632Z,1005.21
2018-11-26T08:14:47.608Z,1005.18
2018-11-26T08:15:47.585Z,1005.19
2018-11-26T08:16:47.560Z,1005.14
2018-11-26T08:17:47.536Z,1005.21
2018-11-26T08:18:47.515Z,1005.23
2018-11-26T08:19:47.498Z,1005.22
2018-11-26T08:20:47.464Z,1005.24
2018-11-26T08:21:47.435Z,1005.22
2018-11-26T08:22:47.417Z,1005.24
2018-11-26T08:23:47.395Z,1005.27
2018-11-26T08:24:47.364Z,1005.30
2018-11-26T08:25:47.341Z,1005.29
2018-11-26T08:26:47.317Z,1005.31
2018-11-26T08:27:47.291Z,1005.31
2018-11-26T08:28:47.277Z,1005.34
2018-11-26T08:29:47.242Z,1005.33
2018-11-26T08:30:47.218Z,1005.34
2018-11-26T08:31:47.195Z,1005.38
2018-11-26T08:32:47.171Z,1005.37
2018-11-26T08:33:47.146Z,1005.39
2018-11-26T08:34:47.124Z,1005.39
2018-11-26T08:35:47.105Z,1005.41
2018-11-26T08:36:47.074Z,1005.46
2018-11-26T08:37:47.048Z,1005.47
2018-11-26T08:38:47.023Z,1005.47
2018-11-26T08:39:46.999Z,1005.47
2018-11-26T08:40:46.975Z,1005.50
2018-11-26T08:41:46.953Z,1005.49
2018-11-26T08:42:46.926Z,1005.49
2018-11-26T08:43:46.901Z,1005.57
2018-11-26T08:44:46.879Z,1005.55
2018-11-26T08:45:46.854Z,1005.60
2018-11-26T08:46:46.828Z,1005.56
2018-11-26T08:47:46.803Z,1005.60
2018-11-26T08:48:46.784Z,1005.60
2018-11-26T08:49:46.755Z,1005.57
2018-11-26T08:50:46.731Z,1005.61
2018-11-26T08:51:46.708Z,1005.62
2018-11-26T08:52:46.688Z,1005.61
2018-11-26T08:53:46.658Z,1005.60
2018-11-26T08:54:46.634Z,1005.61
2018-11-26T08:55:46.609Z,1005.60
2018-11-26T08:56:46.587Z,1005.63
2018-11-26T08:57:46.559Z,1005.61
2018-11-26T08:58:46.537Z,1005.61
2018-11-26T08:59:46.512Z,1005.62
2018-11-26T09:00:46.488Z,1005.62
2018-11-26T09:01:46.464Z,1005.63
2018-11-26T09:02:46.439Z,1005.66
2018-11-26T09:03:46.415Z,1005.64
2018-11-26T09:04:46.390Z,1005.62
2018-11-26T09:05:46.366Z,1005.67
2018-11-26T09:06:46.341Z,1005.65
2018-11-26T09:07:46.317Z,1005.65
2018-11-26T09:08:46.294Z,1005.65
2018-11-26T09:09:46.268Z,1005.64
2018-11-26T09:10:46.245Z,1005.63
2018-11-26T09:11:46.222Z,1005.64
2018-11-26T09:12:46.198Z,1005.69
2018-11-26T09:13:46.172Z,1005.65
2018-11-26T09:14:46.151Z,1005.65
2018-11-26T09:15:46.123Z,1005.66
2018-11-26T09:16:46.100Z,1005.64
2018-11-26T09:17:46.073Z,1005.66
2018-11-26T09:18:46.054Z,1005.66
2018-11-26T09:19:46.027Z,1005.69
2018-11-26T09:20:46.004Z,1005.72
2018-11-26T09:21:45.978Z,1005.76
2018-11-26T09:22:45.955Z,1005.76
2018-11-26T09:23:45.931Z,1005.74
2018-11-26T09:24:45.908Z,1005.74
2018-11-26T09:25:45.883Z,1005.77
2018-11-26T09:26:45.859Z,1005.81
2018-11-26T09:27:45.834Z,1005.79
2018-11-26T09:28:45.809Z,1005.81
2018-11-26T09:29:45.786Z,1005.79
2018-11-26T09:30:45.764Z,1005.82
2018-11-26T09:31:45.737Z,1005.82
2018-11-26T09:32:45.717Z,1005.87
2018-11-26T09:33:45.689Z,1005.86
2018-11-26T09:34:45.664Z,1005.84
2018-11-26T09:35:45.642Z,1005.90
2018-11-26T09:36:45.618Z,1005.83
2018-11-26T09:37:45.593Z,1005.87
2018-11-26T09:38:45.568Z,1005.87
2018-11-26T09:39:45.545Z,1005.87
2018-11-26T09:40:45.520Z,1005.88
2018-11-26T09:41:45.495Z,1005.82
2018-11-26T09:42:45.476Z,1005.86
2018-11-26T09:43:45.449Z,1005.85
2018-11-26T09:44:45.425Z,1005.89
2018-11-26T09:45:45.401Z,1005.85
2018-11-26T09:46:45.376Z,1005.92
2018-11-26T09:47:45.352Z,1005.89
2018-11-26T09:48:45.331Z,1005.96
2018-11-26T09:49:45.303Z,1005.93
2018-11-26T09:50:45.279Z,1005.91
2018-11-26T09:51:45.264Z,1005.96
2018-11-26T09:52:45.232Z,1005.98
2018-11-26T09:53:45.208Z,1005.98
2018-11-26T09:54:45.187Z,1006.01
2018-11-26T09:55:45.163Z,1005.93
2018-11-26T09:56:45.140Z,1005.97
2018-11-26T09:57:45.115Z,1005.98
2018-11-26T09:58:45.092Z,1005.97
2018-11-26T09:59:45.070Z,1005.97
2018-11-26T10:00:45.042Z,1005.96
2018-11-26T10:01:45.018Z,1006.03
2018-11-26T10:02:44.991Z,1005.95
2018-11-26T10:03:44.970Z,1005.97
2018-11-26T10:04:44.946Z,1006.00
2018-11-26T10:05:44.919Z,1005.96
2018-11-26T10:06:44.896Z,1006.01
2018-11-26T10:07:44.875Z,1006.06
2018-11-26T10:08:44.849Z,1006.05
2018-11-26T10:09:44.825Z,1006.06
2018-11-26T10:10:44.802Z,1006.04
2018-11-26T10:11:44.782Z,1006.06
2018-11-26T10:12:44.750Z,1006.05
2018-11-26T10:13:44.726Z,1006.08
2018-11-26T10:14:44.702Z,1006.02
2018-11-26T10:15:44.678Z,1006.03
2018-11-26T10:16:44.655Z,1006.04
2018-11-26T10:17:44.629Z,1006.04
2018-11-26T10:18:44.606Z,1006.00
2018-11-26T10:19:44.581Z,1006.01
2018-11-26T10:20:44.557Z,1006.02
2018-11-26T10:21:44.539Z,1006.02
2018-11-26T10:22:44.509Z,1006.06
2018-11-26T10:23:44.485Z,1006.03
2018-11-26T10:24:44.467Z,1006.04
2018-11-26T10:25:44.455Z,1006.03
2018-11-26T10:26:44.414Z,1005.99
2018-11-26T10:27:44.392Z,1006.00
2018-11-26T10:28:44.366Z,1006.00
2018-11-26T10:29:44.341Z,1005.97
2018-11-26T10:30:44.317Z,1006.00
2018-11-26T10:31:44.294Z,1005.95
2018-11-26T10:32:44.271Z,1005.94
2018-11-26T10:33:44.243Z,1005.93
2018-11-26T10:34:44.219Z,1005.97
2018-11-26T10:35:44.197Z,1005.94
2018-11-26T10:36:44.172Z,1005.95
2018-11-26T10:37:44.148Z,1005.90
2018-11-26T10:38:44.125Z,1005.86
2018-11-26T10:39:44.101Z,1005.86
2018-11-26T10:40:44.093Z,1005.90
2018-11-26T10:41:44.052Z,1005.87
2018-11-26T10:42:44.028Z,1005.94
2018-11-26T10:43:44.009Z,1005.91
2018-11-26T10:44:43.980Z,1005.88
2018-11-26T10:45:43.957Z,1005.89
2018-11-26T10:46:43.931Z,1005.88
2018-11-26T10:47:43.906Z,1005.90
2018-11-26T10:48:43.884Z,1005.90
2018-11-26T10:49:43.861Z,1005.95
2018-11-26T10:50:43.834Z,1005.92
2018-11-26T10:51:43.811Z,1005.86
2018-11-26T10:52:43.788Z,1005.91
2018-11-26T10:53:43.769Z,1005.92
2018-11-26T10:54:43.738Z,1005.91
2018-11-26T10:55:43.720Z,1005.95
2018-11-26T10:56:43.690Z,1005.93
2018-11-26T10:57:43.669Z,1005.93
2018-11-26T10:58:43.645Z,1005.94
2018-11-26T10:59:43.619Z,1005.94
2018-11-26T11:00:43.595Z,1005.96
2018-11-26T11:01:43.568Z,1005.96
2018-11-26T11:02:43.548Z,1005.93
2018-11-26T11:03:43.524Z,1005.94
2018-11-26T11:04:47.616Z,1005.98
2018-11-26T11:05:43.479Z,1005.96
2018-11-26T11:06:43.447Z,1006.01
2018-11-26T11:07:43.424Z,1005.98
2018-11-26T11:08:43.400Z,1005.99
2018-11-26T11:09:43.376Z,1005.98
2018-11-26T11:10:43.353Z,1005.99
2018-11-26T11:11:43.328Z,1006.01
2018-11-26T11:12:43.304Z,1006.02
2018-11-26T11:13:43.282Z,1006.04
2018-11-26T11:14:43.257Z,1006.05
2018-11-26T11:15:43.232Z,1006.00
2018-11-26T11:16:43.208Z,1006.01
2018-11-26T11:17:43.182Z,1006.04
2018-11-26T11:18:43.159Z,1006.02
2018-11-26T11:19:43.139Z,1006.04
2018-11-26T11:20:43.112Z,1006.02
2018-11-26T11:21:43.086Z,1006.04
2018-11-26T11:22:43.062Z,1006.03
2018-11-26T11:23:43.041Z,1006.03
2018-11-26T11:24:43.016Z,1006.03
2018-11-26T11:25:42.992Z,1006.03
2018-11-26T11:26:42.965Z,1006.03
2018-11-26T11:27:42.942Z,1006.06
2018-11-26T11:28:42.918Z,1006.06
2018-11-26T11:29:42.892Z,1006.08
2018-11-26T11:30:42.868Z,1006.11
2018-11-26T11:31:42.844Z,1006.12
2018-11-26T11:32:42.821Z,1006.13
2018-11-26T11:33:42.798Z,1006.10
2018-11-26T11:34:42.770Z,1006.13
2018-11-26T11:35:42.749Z,1006.13
2018-11-26T11:36:42.723Z,1006.17
2018-11-26T11:37:42.698Z,1006.11
2018-11-26T11:38:42.674Z,1006.10
2018-11-26T11:39:42.649Z,1006.13
2018-11-26T11:40:42.624Z,1006.10
2018-11-26T11:41:42.600Z,1006.12
2018-11-26T11:42:42.576Z,1006.11
2018-11-26T11:43:42.552Z,1006.06
2018-11-26T11:44:42.528Z,1006.06
2018-11-26T11:45:42.505Z,1006.04
2018-11-26T11:46:42.479Z,1006.06
2018-11-26T11:47:42.454Z,1006.03
2018-11-26T11:48:42.433Z,1006.05
2018-11-26T11:49:42.427Z,1006.05
2018-11-26T11:50:42.384Z,1006.06
2018-11-26T11:51:42.360Z,1006.08
2018-11-26T11:52:42.335Z,1006.02
2018-11-26T11:53:42.316Z,1006.01
2018-11-26T11:54:42.285Z,1006.05
2018-11-26T11:55:42.263Z,1005.98
2018-11-26T11:56:42.247Z,1005.98
2018-11-26T11:57:42.212Z,1005.99
2018-11-26T11:58:42.189Z,1005.98
2018-11-26T11:59:42.164Z,1005.96
2018-11-26T12:00:42.141Z,1006.02
2018-11-26T12:01:42.115Z,1005.99
2018-11-26T12:02:42.091Z,1006.01
2018-11-26T12:03:42.067Z,1005.99
2018-11-26T12:04:42.043Z,1006.04
2018-11-26T12:05:42.020Z,1006.04